Time;durP1;ratioP1;P1;durP2;ratioP2;P2;SDS_P1;SDS_P2;PMS_P1;PMS_P2;Temp;Humidity;BMP_temperature;BMP_pressure;BME280_temperature;BME280_humidity;BME280_pressure;Samples;Min_cycle;Max_cycle;Signal;HPM_P1;HPM_P2
2021/05/05 00:00:29;;;;;;;3.90;1.92;;;;;;;6.99;62.00;97312.98;1674229;84;21183;-66
2021/05/05 00:02:59;;;;;;;2.62;1.80;;;;;;;6.94;62.78;97308.70;1674267;84;21159;-65
2021/05/05 00:05:33;;;;;;;2.75;1.70;;;;;;;6.90;63.01;97308.63;1684998;84;21703;-65
2021/05/05 00:08:01;;;;;;;4.65;1.82;;;;;;;6.86;62.50;97303.40;1689372;85;21207;-66
2021/05/05 00:10:29;;;;;;;2.75;1.57;;;;;;;6.84;63.12;97310.00;1689548;85;21568;-66
2021/05/05 00:12:57;;;;;;;1.87;1.40;;;;;;;6.83;63.23;97308.84;1689551;85;21614;-65
2021/05/05 00:15:26;;;;;;;1.95;1.42;;;;;;;6.81;62.81;97311.55;1661192;84;21612;-66
2021/05/05 00:17:54;;;;;;;2.67;1.72;;;;;;;6.80;62.96;97306.06;1689574;84;21551;-66
2021/05/05 00:20:22;;;;;;;2.77;1.52;;;;;;;6.79;63.65;97302.31;1689768;84;21233;-66
2021/05/05 00:22:52;;;;;;;2.55;1.57;;;;;;;6.74;63.28;97305.30;1689471;85;21170;-67
2021/05/05 00:25:20;;;;;;;2.15;1.57;;;;;;;6.72;62.06;97298.18;1689560;85;21366;-68
2021/05/05 00:27:50;;;;;;;2.60;1.40;;;;;;;6.75;61.79;97297.91;1689656;84;21134;-67
2021/05/05 00:30:23;;;;;;;1.82;1.20;;;;;;;6.71;62.70;97290.56;1689458;85;21182;-68
2021/05/05 00:32:51;;;;;;;1.70;1.00;;;;;;;6.74;62.20;97292.39;1689501;85;21672;-67
2021/05/05 00:35:20;;;;;;;2.30;1.40;;;;;;;6.76;61.29;97289.69;1689573;84;21587;-67
2021/05/05 00:37:48;;;;;;;1.80;1.10;;;;;;;6.76;61.64;97290.51;1689578;84;21214;-66
2021/05/05 00:40:16;;;;;;;2.47;1.57;;;;;;;6.77;61.56;97287.45;1689526;84;21163;-66
2021/05/05 00:42:44;;;;;;;4.50;1.00;;;;;;;6.78;60.67;97289.88;1689565;84;21523;-66
2021/05/05 00:45:15;;;;;;;1.60;1.42;;;;;;;6.79;59.92;97288.13;1689489;85;21134;-65
2021/05/05 00:47:44;;;;;;;3.58;0.90;;;;;;;6.81;60.03;97287.53;1689603;85;21210;-66
2021/05/05 00:50:15;;;;;;;3.60;1.10;;;;;;;6.82;59.62;97283.97;1689540;85;21182;-66
2021/05/05 00:52:44;;;;;;;3.35;1.50;;;;;;;6.72;60.76;97274.14;1683801;85;21611;-65
2021/05/05 00:55:17;;;;;;;1.85;1.12;;;;;;;6.81;60.16;97287.02;1685195;84;21619;-66
2021/05/05 00:57:47;;;;;;;3.25;1.42;;;;;;;6.75;61.01;97286.77;1667424;85;21183;-65
2021/05/05 01:00:21;;;;;;;2.08;1.20;;;;;;;6.75;60.31;97290.16;1685010;84;21167;-67
2021/05/05 01:02:49;;;;;;;1.55;1.10;;;;;;;6.76;60.87;97293.56;1684916;85;21576;-64
2021/05/05 01:05:17;;;;;;;1.30;1.10;;;;;;;6.80;59.61;97296.22;1684917;85;21191;-66
2021/05/05 01:07:49;;;;;;;2.85;0.70;;;;;;;6.82;59.54;97298.17;1685024;85;21190;-67
2021/05/05 01:10:18;;;;;;;1.47;1.10;;;;;;;6.81;59.60;97296.06;1684970;85;21210;-65
2021/05/05 01:12:46;;;;;;;2.50;1.30;;;;;;;6.82;59.26;97293.00;1685004;85;21154;-65
2021/05/05 01:15:16;;;;;;;2.37;1.50;;;;;;;6.83;59.15;97297.23;1684768;85;21202;-65
2021/05/05 01:17:48;;;;;;;4.10;1.20;;;;;;;6.82;59.92;97299.45;1684745;85;21147;-65
2021/05/05 01:20:16;;;;;;;1.50;1.25;;;;;;;6.80;58.50;97300.91;1684870;84;21603;-65
2021/05/05 01:22:44;;;;;;;2.62;1.52;;;;;;;6.81;59.57;97297.85;1684865;85;21179;-64
2021/05/05 01:25:17;;;;;;;3.35;1.50;;;;;;;6.76;62.53;97296.96;1684952;84;21615;-65
2021/05/05 01:27:45;;;;;;;6.00;1.60;;;;;;;6.67;63.02;97294.70;1685001;85;21210;-66
2021/05/05 01:30:18;;;;;;;2.75;1.35;;;;;;;6.63;62.54;97297.69;1684881;85;21166;-66
2021/05/05 01:32:46;;;;;;;3.87;2.02;;;;;;;6.55;63.21;97289.80;1666430;85;21174;-67
2021/05/05 01:35:17;;;;;;;2.80;1.40;;;;;;;6.49;63.03;97288.59;1685002;84;22717;-65
2021/05/05 01:37:49;;;;;;;1.90;1.45;;;;;;;6.46;63.68;97284.17;1684882;84;21135;-65
2021/05/05 01:40:33;;;;;;;3.95;1.32;;;;;;;6.42;62.65;97278.44;1684921;85;21591;-65
2021/05/05 01:43:05;;;;;;;1.27;1.07;;;;;;;6.40;63.97;97280.82;1685013;84;21166;-68
2021/05/05 01:45:34;;;;;;;2.30;1.47;;;;;;;6.35;63.91;97281.69;1685539;84;21293;-66
2021/05/05 01:48:08;;;;;;;1.85;1.42;;;;;;;6.33;64.18;97281.02;1667636;85;21182;-66
2021/05/05 01:50:37;;;;;;;2.17;1.30;;;;;;;6.30;64.53;97285.16;1684908;85;21631;-66
2021/05/05 01:53:06;;;;;;;2.12;1.12;;;;;;;6.26;64.85;97284.61;1688142;84;21633;-69
2021/05/05 01:55:36;;;;;;;1.47;1.17;;;;;;;6.25;64.26;97277.81;1689715;84;21222;-66
2021/05/05 01:58:06;;;;;;;2.72;1.47;;;;;;;6.25;63.32;97283.44;1689912;84;21627;-68
2021/05/05 02:00:37;;;;;;;4.30;1.50;;;;;;;6.23;64.80;97277.58;1689976;84;21650;-67
2021/05/05 02:03:09;;;;;;;2.05;0.95;;;;;;;6.27;64.30;97274.61;1689967;85;21203;-68
2021/05/05 02:05:48;;;;;;;1.98;1.07;;;;;;;6.28;63.65;97266.41;1689217;85;21155;-67
2021/05/05 02:08:26;;;;;;;1.40;1.30;;;;;;;6.29;62.21;97259.84;1687654;85;21226;-68
2021/05/05 02:10:54;;;;;;;1.50;1.20;;;;;;;6.32;62.39;97255.70;1689807;84;21163;-67
2021/05/05 02:13:23;;;;;;;3.45;1.30;;;;;;;6.35;61.12;97248.16;1689664;84;21230;-65
2021/05/05 02:15:52;;;;;;;5.08;1.25;;;;;;;6.37;61.57;97245.81;1689549;85;21154;-65
2021/05/05 02:18:23;;;;;;;2.47;1.25;;;;;;;6.37;62.39;97241.94;1689605;85;21479;-68
2021/05/05 02:20:52;;;;;;;1.95;1.30;;;;;;;6.38;61.80;97237.09;1689561;85;21135;-65
2021/05/05 02:23:21;;;;;;;1.75;1.10;;;;;;;6.38;63.55;97242.26;1689748;85;21159;-66
2021/05/05 02:25:50;;;;;;;2.77;1.70;;;;;;;6.35;63.84;97233.98;1689984;85;21158;-66
2021/05/05 02:28:19;;;;;;;3.12;1.90;;;;;;;6.34;63.13;97234.45;1689870;84;21183;-66
2021/05/05 02:31:06;;;;;;;2.72;1.32;;;;;;;6.34;63.13;97224.13;1689674;85;21158;-66
2021/05/05 02:33:36;;;;;;;3.27;2.00;;;;;;;6.32;64.44;97232.49;1689929;84;21198;-68
2021/05/05 02:36:06;;;;;;;2.58;1.87;;;;;;;6.34;64.30;97238.31;1689691;84;21195;-66
2021/05/05 02:38:35;;;;;;;4.78;2.02;;;;;;;6.34;65.00;97241.39;1689741;85;21591;-65
2021/05/05 02:41:06;;;;;;;5.20;1.70;;;;;;;6.32;65.44;97239.41;1689643;85;21901;-66
2021/05/05 02:43:34;;;;;;;3.02;1.50;;;;;;;6.29;64.82;97234.05;1689567;84;21195;-64
2021/05/05 02:46:03;;;;;;;2.98;1.87;;;;;;;6.31;65.00;97224.88;1689731;84;21254;-67
2021/05/05 02:48:31;;;;;;;3.65;1.87;;;;;;;6.35;64.42;97223.66;1689548;84;21161;-66
2021/05/05 02:50:59;;;;;;;3.12;2.22;;;;;;;6.37;65.44;97216.63;1689598;84;21153;-66
2021/05/05 02:53:28;;;;;;;3.37;1.87;;;;;;;6.37;65.45;97216.16;1689684;84;21174;-64
2021/05/05 02:55:58;;;;;;;3.08;2.10;;;;;;;6.38;65.53;97201.50;1689723;85;21159;-66
2021/05/05 02:58:27;;;;;;;3.83;1.80;;;;;;;6.36;65.83;97208.54;1689645;85;21608;-64
2021/05/05 03:00:55;;;;;;;2.50;1.57;;;;;;;6.35;64.96;97206.90;1689694;85;22171;-65
2021/05/05 03:03:23;;;;;;;1.77;1.30;;;;;;;6.38;64.58;97207.95;1689820;85;21143;-65
2021/05/05 03:05:51;;;;;;;5.92;1.80;;;;;;;6.41;63.84;97214.94;1689661;84;21179;-65
2021/05/05 03:08:19;;;;;;;2.47;1.32;;;;;;;6.43;64.62;97213.49;1689805;85;21174;-65
2021/05/05 03:10:49;;;;;;;2.58;1.52;;;;;;;6.44;64.87;97215.12;1689699;85;21182;-67
2021/05/05 03:13:17;;;;;;;2.25;1.30;;;;;;;6.41;64.92;97216.23;1689531;85;21212;-67
2021/05/05 03:15:45;;;;;;;3.08;1.07;;;;;;;6.39;64.67;97218.58;1689416;85;21148;-67
2021/05/05 03:18:13;;;;;;;2.52;1.30;;;;;;;6.37;64.54;97217.44;1688824;83;21189;-67
2021/05/05 03:20:41;;;;;;;1.55;1.05;;;;;;;6.38;64.68;97220.34;1693579;83;21198;-65
2021/05/05 03:23:09;;;;;;;2.30;1.02;;;;;;;6.36;64.69;97219.67;1693492;83;21247;-67
2021/05/05 03:25:37;;;;;;;1.82;1.22;;;;;;;6.37;64.92;97214.05;1693545;83;21172;-66
2021/05/05 03:28:05;;;;;;;1.77;1.65;;;;;;;6.36;64.74;97222.72;1693623;83;21614;-66
2021/05/05 03:30:33;;;;;;;5.40;1.67;;;;;;;6.35;65.46;97223.66;1693511;85;21157;-67
2021/05/05 03:33:01;;;;;;;1.55;1.30;;;;;;;6.35;65.54;97215.92;1693668;83;21172;-65
2021/05/05 03:35:30;;;;;;;5.30;1.47;;;;;;;6.36;65.97;97222.72;1693539;83;21241;-65
2021/05/05 03:37:58;;;;;;;5.95;1.57;;;;;;;6.41;65.04;97220.56;1693596;85;21170;-65
2021/05/05 03:40:28;;;;;;;24.98;11.18;;;;;;;6.31;64.97;97205.54;1693468;83;21197;-67
2021/05/05 03:42:56;;;;;;;8.90;3.62;;;;;;;6.46;63.77;97220.98;1693666;84;21181;-66
2021/05/05 03:45:24;;;;;;;3.92;2.10;;;;;;;6.48;64.99;97222.47;1693578;83;21678;-66
2021/05/05 03:47:52;;;;;;;6.72;2.12;;;;;;;6.54;65.02;97225.78;1693745;84;21169;-67
2021/05/05 03:50:22;;;;;;;8.53;3.67;;;;;;;6.55;65.44;97222.73;1693690;83;21184;-67
2021/05/05 03:52:50;;;;;;;4.60;2.67;;;;;;;6.60;65.35;97232.17;1692008;83;21181;-68
2021/05/05 03:55:21;;;;;;;13.80;2.70;;;;;;;6.65;64.75;97234.67;1691034;83;21681;-68
2021/05/05 03:57:49;;;;;;;3.42;2.15;;;;;;;6.72;64.82;97237.55;1691287;85;21153;-65
2021/05/05 04:00:18;;;;;;;1.60;1.30;;;;;;;6.75;65.33;97246.77;1690889;85;21241;-68
2021/05/05 04:02:46;;;;;;;2.92;1.77;;;;;;;6.82;64.74;97246.55;1691126;83;21180;-65
2021/05/05 04:05:15;;;;;;;2.58;1.47;;;;;;;6.89;65.09;97251.03;1691013;84;21233;-65
2021/05/05 04:07:43;;;;;;;4.00;2.08;;;;;;;6.95;64.77;97246.62;1691059;85;21157;-65
2021/05/05 04:10:12;;;;;;;4.70;1.50;;;;;;;7.03;63.91;97241.59;1691198;84;21264;-68
2021/05/05 04:12:40;;;;;;;2.20;1.05;;;;;;;7.07;64.01;97247.30;1691159;85;21189;-67
2021/05/05 04:15:26;;;;;;;2.02;1.37;;;;;;;7.14;63.72;97247.07;1691349;83;21200;-67
2021/05/05 04:18:12;;;;;;;1.98;1.42;;;;;;;7.21;63.44;97249.91;1671986;85;21217;-67
2021/05/05 04:21:03;;;;;;;2.50;1.35;;;;;;;7.28;62.84;97244.05;1672514;83;21260;-68
2021/05/05 04:23:49;;;;;;;7.22;1.77;;;;;;;7.35;62.33;97246.43;1673671;84;21157;-67
2021/05/05 04:26:18;;;;;;;3.60;1.50;;;;;;;7.45;61.74;97244.63;1673852;86;21199;-67
2021/05/05 04:28:48;;;;;;;1.70;1.05;;;;;;;7.54;61.78;97250.72;1674145;84;21169;-67
2021/05/05 04:31:17;;;;;;;1.65;1.10;;;;;;;7.63;61.46;97244.69;1674388;86;21319;-67
2021/05/05 04:33:46;;;;;;;2.87;1.42;;;;;;;7.73;61.07;97247.25;1673989;84;21225;-65
2021/05/05 04:36:34;;;;;;;1.85;1.25;;;;;;;7.81;61.03;97246.06;1674277;83;21206;-67
2021/05/05 04:39:04;;;;;;;2.27;1.40;;;;;;;7.92;60.60;97247.16;1646883;86;21738;-68
2021/05/05 04:41:32;;;;;;;1.72;1.22;;;;;;;8.00;60.85;97240.32;1647115;86;21166;-66
2021/05/05 04:44:00;;;;;;;4.33;1.57;;;;;;;8.10;60.24;97240.25;1647065;86;21191;-69
2021/05/05 04:46:29;;;;;;;2.92;2.05;;;;;;;8.14;60.55;97239.00;1646770;86;21261;-66
2021/05/05 04:48:58;;;;;;;5.00;1.95;;;;;;;8.19;60.47;97233.41;1646806;85;21169;-66
2021/05/05 04:51:26;;;;;;;2.72;1.45;;;;;;;8.26;61.20;97233.15;1647033;86;21178;-65
2021/05/05 04:53:54;;;;;;;6.78;2.27;;;;;;;8.39;60.92;97232.36;1646975;87;21315;-65
2021/05/05 04:56:22;;;;;;;3.22;1.85;;;;;;;8.42;60.09;97233.34;1646824;87;21250;-66
2021/05/05 04:58:52;;;;;;;3.22;2.20;;;;;;;8.44;60.13;97232.23;1646828;86;21296;-67
2021/05/05 05:01:19;;;;;;;2.87;1.62;;;;;;;8.57;59.99;97226.22;1646870;86;21214;-65
2021/05/05 05:03:47;;;;;;;3.27;2.22;;;;;;;8.70;59.19;97228.45;1646836;85;21621;-66
2021/05/05 05:06:16;;;;;;;7.65;2.12;;;;;;;8.81;59.23;97223.03;1646838;86;21591;-65
2021/05/05 05:08:46;;;;;;;4.22;1.55;;;;;;;8.89;58.72;97220.52;1646805;86;21198;-66
2021/05/05 05:11:15;;;;;;;5.58;2.47;;;;;;;9.03;58.38;97221.25;1646747;86;21595;-68
2021/05/05 05:13:43;;;;;;;4.95;2.25;;;;;;;9.09;58.04;97223.73;1646693;86;21675;-66
2021/05/05 05:16:11;;;;;;;8.73;2.62;;;;;;;9.15;57.85;97213.23;1646814;86;21150;-66
2021/05/05 05:18:39;;;;;;;5.72;2.30;;;;;;;9.39;57.64;97227.17;1646740;85;21635;-64
2021/05/05 05:21:07;;;;;;;7.83;2.77;;;;;;;9.57;57.19;97221.94;1646892;86;21190;-66
2021/05/05 05:23:35;;;;;;;8.30;2.77;;;;;;;9.72;56.70;97219.09;1646977;86;21346;-65
2021/05/05 05:26:03;;;;;;;4.85;2.70;;;;;;;9.83;56.13;97220.59;1646892;87;21206;-65
2021/05/05 05:28:31;;;;;;;8.23;3.08;;;;;;;9.91;56.66;97221.92;1646884;87;21178;-63
2021/05/05 05:30:59;;;;;;;3.92;2.58;;;;;;;10.01;56.40;97216.92;1646921;87;21611;-62
2021/05/05 05:33:27;;;;;;;7.42;2.80;;;;;;;10.16;55.92;97218.94;1646965;87;21649;-65
2021/05/05 05:35:56;;;;;;;6.08;2.55;;;;;;;10.27;55.72;97215.56;1647003;86;21629;-66
2021/05/05 05:38:25;;;;;;;4.67;2.58;;;;;;;10.40;55.53;97221.11;1661577;85;21167;-64
2021/05/05 05:40:52;;;;;;;7.35;3.72;;;;;;;10.48;55.14;97219.02;1646426;85;21191;-63
2021/05/05 05:43:21;;;;;;;11.45;4.97;;;;;;;10.44;55.73;97219.01;1663574;86;21159;-65
2021/05/05 05:45:48;;;;;;;8.45;3.70;;;;;;;10.30;55.63;97224.34;1663514;86;21202;-65
2021/05/05 05:48:16;;;;;;;8.18;4.10;;;;;;;10.46;55.26;97219.67;1663415;85;21196;-65
2021/05/05 05:50:44;;;;;;;5.47;3.42;;;;;;;10.27;55.94;97213.48;1663315;86;21230;-64
2021/05/05 05:53:12;;;;;;;6.20;3.52;;;;;;;10.51;55.30;97225.18;1663604;85;21576;-64
2021/05/05 05:55:43;;;;;;;5.50;3.80;;;;;;;10.66;54.85;97215.78;1663338;86;21200;-64
2021/05/05 05:58:12;;;;;;;11.63;3.80;;;;;;;10.77;54.50;97214.20;1663126;86;21174;-65
2021/05/05 06:00:40;;;;;;;7.50;4.25;;;;;;;10.81;54.34;97206.89;1663319;85;21223;-64
2021/05/05 06:03:08;;;;;;;9.95;3.58;;;;;;;10.74;54.69;97210.59;1663471;86;21631;-65
2021/05/05 06:05:37;;;;;;;5.35;3.65;;;;;;;10.86;54.62;97211.09;1663313;86;21612;-64
2021/05/05 06:08:06;;;;;;;6.42;3.58;;;;;;;10.90;54.36;97214.50;1663376;86;21265;-63
2021/05/05 06:10:34;;;;;;;14.65;4.30;;;;;;;11.09;54.07;97224.26;1663513;86;21604;-63
2021/05/05 06:13:04;;;;;;;10.85;4.87;;;;;;;11.14;53.74;97221.47;1663464;86;21179;-65
2021/05/05 06:15:31;;;;;;;12.37;4.67;;;;;;;11.16;53.75;97217.42;1663459;86;21147;-65
2021/05/05 06:17:59;;;;;;;8.73;3.87;;;;;;;11.37;52.86;97213.31;1663499;86;21192;-65
2021/05/05 06:20:27;;;;;;;14.85;7.53;;;;;;;11.54;53.02;97213.28;1663341;86;22381;-63
2021/05/05 06:22:55;;;;;;;9.28;4.97;;;;;;;11.57;52.31;97208.56;1663354;86;21576;-65
2021/05/05 06:25:24;;;;;;;7.05;4.08;;;;;;;11.57;52.45;97206.44;1663400;86;21187;-65
2021/05/05 06:27:53;;;;;;;7.37;3.87;;;;;;;11.61;51.92;97202.53;1663617;86;21228;-65
2021/05/05 06:30:22;;;;;;;6.08;3.83;;;;;;;11.72;51.17;97205.61;1663234;86;21147;-65
2021/05/05 06:32:50;;;;;;;7.83;3.60;;;;;;;11.93;50.66;97199.03;1663409;85;21255;-65
2021/05/05 06:35:20;;;;;;;15.18;5.87;;;;;;;12.00;50.87;97193.47;1663164;86;21636;-65
2021/05/05 06:37:48;;;;;;;10.85;4.72;;;;;;;11.97;50.62;97184.70;1653978;86;21219;-64
2021/05/05 06:40:16;;;;;;;7.62;4.35;;;;;;;12.18;50.34;97184.41;1631975;87;21181;-63
2021/05/05 06:42:45;;;;;;;7.05;4.70;;;;;;;12.12;50.57;97184.30;1633555;87;21223;-63
2021/05/05 06:45:14;;;;;;;5.78;3.77;;;;;;;12.35;50.06;97183.84;1632135;86;21555;-66
2021/05/05 06:47:42;;;;;;;9.68;5.08;;;;;;;12.42;49.77;97175.65;1633719;86;21184;-63
2021/05/05 06:50:12;;;;;;;7.65;4.28;;;;;;;12.43;49.85;97177.28;1633175;87;22100;-63
2021/05/05 06:52:40;;;;;;;7.92;3.00;;;;;;;12.38;49.34;97183.48;1622160;87;21196;-66
2021/05/05 06:55:11;;;;;;;7.83;4.17;;;;;;;12.41;50.43;97177.95;1628480;88;21164;-65
2021/05/05 06:57:39;;;;;;;6.75;4.20;;;;;;;12.60;50.48;97173.59;1635479;88;21196;-66
2021/05/05 07:00:29;;;;;;;8.98;4.28;;;;;;;12.56;50.83;97163.20;1628435;88;21164;-66
2021/05/05 07:02:57;;;;;;;8.13;3.62;;;;;;;12.63;50.95;97157.61;1658198;86;21173;-66
2021/05/05 07:05:26;;;;;;;5.45;3.50;;;;;;;12.62;51.36;97156.47;1662487;85;21192;-64
2021/05/05 07:07:54;;;;;;;5.75;3.12;;;;;;;12.72;51.76;97160.44;1659236;85;21240;-66
2021/05/05 07:10:22;;;;;;;7.20;3.08;;;;;;;12.81;51.96;97164.61;1659370;85;21197;-64
2021/05/05 07:12:50;;;;;;;4.75;3.35;;;;;;;12.92;52.06;97167.80;1659550;86;21616;-64
2021/05/05 07:15:18;;;;;;;6.15;3.72;;;;;;;12.94;52.46;97164.02;1659618;86;21712;-63
2021/05/05 07:17:48;;;;;;;9.10;3.67;;;;;;;12.87;52.88;97159.20;1659430;85;21164;-62
2021/05/05 07:20:38;;;;;;;7.65;3.35;;;;;;;13.02;52.85;97161.83;1659465;86;21608;-65
2021/05/05 07:23:05;;;;;;;5.90;3.10;;;;;;;13.02;52.99;97158.73;1626952;87;21175;-66
2021/05/05 07:25:33;;;;;;;6.72;3.35;;;;;;;13.31;52.46;97157.97;1627024;87;21156;-66
2021/05/05 07:28:01;;;;;;;4.33;3.08;;;;;;;13.31;52.29;97150.96;1626856;87;21652;-67
2021/05/05 07:30:29;;;;;;;5.40;3.50;;;;;;;13.81;51.26;97147.31;1626849;88;21179;-64
2021/05/05 07:32:58;;;;;;;10.78;4.87;;;;;;;13.99;50.96;97147.72;1626870;87;21241;-65
2021/05/05 07:35:26;;;;;;;7.83;3.80;;;;;;;13.94;51.20;97142.23;1626856;88;21211;-65
2021/05/05 07:51:02;;;;;;;5.78;3.80;;;;;;;14.34;51.80;97121.27;1626965;87;20182;-65
2021/05/05 07:53:29;;;;;;;4.47;2.75;;;;;;;14.43;51.23;97121.01;1626981;87;21223;-65
2021/05/05 07:55:59;;;;;;;5.85;3.00;;;;;;;14.53;50.76;97120.67;1627047;87;21187;-66
2021/05/05 07:58:27;;;;;;;5.95;3.70;;;;;;;14.40;51.21;97116.13;1626982;87;21168;-66
2021/05/05 08:00:54;;;;;;;5.97;3.30;;;;;;;14.60;50.83;97111.89;1626941;88;21200;-66
2021/05/05 08:03:22;;;;;;;3.35;2.60;;;;;;;14.85;50.32;97107.08;1626936;87;21203;-64
2021/05/05 08:05:50;;;;;;;6.92;4.05;;;;;;;15.09;49.46;97100.61;1626980;87;21186;-65
2021/05/05 08:08:18;;;;;;;3.70;1.98;;;;;;;15.16;48.81;97097.53;1626892;88;21187;-66
2021/05/05 08:10:47;;;;;;;4.08;2.58;;;;;;;15.30;48.58;97091.36;1627038;87;21184;-65
2021/05/05 08:13:15;;;;;;;9.48;2.70;;;;;;;15.38;48.36;97083.85;1626880;87;21178;-65
2021/05/05 08:15:42;;;;;;;3.27;2.12;;;;;;;15.39;48.52;97085.48;1626972;88;21187;-65
2021/05/05 08:18:11;;;;;;;8.18;2.83;;;;;;;15.46;48.51;97079.27;1626925;87;21612;-65
2021/05/05 08:20:40;;;;;;;4.83;3.27;;;;;;;15.59;48.65;97083.30;1626843;87;21708;-65
2021/05/05 08:23:09;;;;;;;7.78;2.83;;;;;;;15.71;48.28;97084.04;1635713;88;21615;-65
2021/05/05 08:25:37;;;;;;;3.37;2.55;;;;;;;15.78;48.44;97086.98;1636239;88;21194;-65
2021/05/05 08:28:05;;;;;;;5.92;2.35;;;;;;;15.85;48.27;97083.06;1636155;87;21629;-65
2021/05/05 08:30:33;;;;;;;4.62;2.00;;;;;;;16.02;48.36;97083.03;1636012;87;21639;-65
2021/05/05 08:33:01;;;;;;;6.58;2.40;;;;;;;16.24;48.17;97078.42;1636188;87;21199;-64
2021/05/05 08:35:30;;;;;;;3.92;1.80;;;;;;;16.41;47.66;97081.78;1636020;87;21623;-65
2021/05/05 08:37:58;;;;;;;9.18;2.40;;;;;;;16.57;47.35;97080.09;1635990;87;21596;-64
2021/05/05 08:40:25;;;;;;;4.45;1.80;;;;;;;16.74;47.37;97082.30;1636336;86;21234;-64
2021/05/05 08:42:54;;;;;;;3.62;2.58;;;;;;;16.84;46.61;97074.86;1635937;88;21596;-65
2021/05/05 08:45:25;;;;;;;3.77;2.15;;;;;;;16.89;46.71;97080.27;1635983;87;21190;-65
2021/05/05 08:47:57;;;;;;;4.83;2.08;;;;;;;16.98;46.92;97079.06;1636233;87;21148;-67
2021/05/05 08:50:29;;;;;;;4.78;1.80;;;;;;;17.10;46.64;97074.81;1636014;88;21244;-67
2021/05/05 08:52:58;;;;;;;4.37;2.12;;;;;;;17.21;46.48;97072.05;1636182;88;21212;-66
2021/05/05 08:55:29;;;;;;;3.05;1.87;;;;;;;17.28;46.41;97071.53;1635970;87;21151;-67
2021/05/05 08:57:59;;;;;;;4.17;1.85;;;;;;;17.36;46.53;97066.05;1636193;87;21147;-65
2021/05/05 09:00:31;;;;;;;10.18;4.30;;;;;;;17.45;46.68;97060.38;1636171;86;21179;-65
2021/05/05 09:03:02;;;;;;;7.97;4.97;;;;;;;17.46;45.58;97053.32;1635947;88;21658;-67
2021/05/05 09:05:58;;;;;;;8.55;3.87;;;;;;;17.42;45.55;97046.88;1634957;88;21136;-66
2021/05/05 09:08:50;;;;;;;6.42;3.52;;;;;;;17.52;45.72;97046.72;1636047;87;21591;-67
2021/05/05 09:11:18;;;;;;;11.75;4.87;;;;;;;17.62;45.24;97045.51;1670499;84;21150;-66
2021/05/05 09:16:36;;;;;;;5.37;2.87;;;;;;;17.76;43.93;97037.35;1748648;80;21566;-66
2021/05/05 09:19:29;;;;;;;2.98;1.57;;;;;;;17.98;44.21;97034.69;1717408;81;21702;-67
2021/05/05 09:21:57;;;;;;;5.55;2.10;;;;;;;18.24;44.12;97035.55;1669475;85;21152;-66
2021/05/05 09:27:34;;;;;;;5.58;2.35;;;;;;;18.64;42.25;97027.66;1685210;84;21188;-67
2021/05/05 09:30:10;;;;;;;8.55;2.40;;;;;;;18.98;41.17;97017.64;1684477;84;21600;-66
2021/05/05 09:32:54;;;;;;;6.62;2.75;;;;;;;19.20;39.12;97007.77;1679898;84;21172;-66
2021/05/05 09:35:34;;;;;;;1.65;1.20;;;;;;;19.35;37.74;97013.97;1684187;84;21631;-65
2021/05/05 09:38:09;;;;;;;2.22;1.12;;;;;;;19.39;33.92;96997.52;1684077;84;21186;-64
2021/05/05 09:40:54;;;;;;;2.40;1.40;;;;;;;19.50;33.31;97001.77;1684298;84;21176;-64
2021/05/05 09:43:23;;;;;;;3.08;1.17;;;;;;;19.67;33.38;97001.45;1684336;84;21179;-64
2021/05/05 09:45:51;;;;;;;4.03;1.95;;;;;;;19.98;32.71;97003.86;1684059;84;21621;-65
2021/05/05 09:48:24;;;;;;;2.42;1.25;;;;;;;20.05;34.29;96997.16;1684281;84;21168;-64
2021/05/05 09:51:02;;;;;;;3.17;1.35;;;;;;;20.41;36.55;96995.72;1684127;84;21196;-65
2021/05/05 09:53:32;;;;;;;1.75;1.00;;;;;;;20.84;37.79;96992.74;1684254;84;21188;-64
2021/05/05 09:56:10;;;;;;;3.35;1.30;;;;;;;21.09;34.79;96981.91;1684232;84;21187;-65
2021/05/05 09:58:41;;;;;;;1.75;1.00;;;;;;;21.05;35.01;96974.20;1684502;84;21561;-65
2021/05/05 10:01:20;;;;;;;2.45;0.78;;;;;;;20.90;29.24;96968.57;1684352;84;21172;-66
2021/05/05 10:03:55;;;;;;;0.93;0.70;;;;;;;20.99;28.85;96952.16;1684128;84;21171;-65
2021/05/05 10:06:32;;;;;;;3.00;0.95;;;;;;;21.16;28.73;96943.84;1684140;84;21618;-65
2021/05/05 10:09:12;;;;;;;1.00;0.90;;;;;;;21.76;30.11;96940.20;1683993;84;21251;-65
2021/05/05 10:11:43;;;;;;;2.30;1.15;;;;;;;22.60;29.58;96922.52;1684252;84;21180;-65
2021/05/05 10:14:15;;;;;;;1.20;1.02;;;;;;;22.69;29.99;96911.00;1684105;84;21188;-67
2021/05/05 10:16:49;;;;;;;3.27;1.07;;;;;;;23.41;27.47;96914.78;1684282;84;21621;-66
2021/05/05 10:19:27;;;;;;;4.03;2.33;;;;;;;23.60;27.22;96912.09;1684958;84;21196;-64
2021/05/05 10:22:06;;;;;;;2.85;1.65;;;;;;;23.52;27.68;96910.69;1684387;84;21231;-67
2021/05/05 10:24:38;;;;;;;2.62;1.30;;;;;;;23.05;28.49;96895.84;1684149;84;21148;-64
2021/05/05 10:27:08;;;;;;;9.43;3.95;;;;;;;23.30;28.55;96900.64;1696066;82;21252;-64
2021/05/05 10:29:39;;;;;;;2.47;1.25;;;;;;;23.82;29.08;96900.89;1696839;83;21140;-66
2021/05/05 10:32:12;;;;;;;1.12;1.00;;;;;;;23.76;27.29;96904.56;1696871;83;21225;-67
2021/05/05 10:38:00;;;;;;;2.05;1.10;;;;;;;25.06;25.91;96884.45;1715741;82;21155;-67
2021/05/05 10:40:35;;;;;;;2.75;1.40;;;;;;;25.07;25.23;96888.71;1716780;83;21587;-67
2021/05/05 10:43:06;;;;;;;1.82;1.10;;;;;;;24.28;25.62;96890.13;1716635;82;21226;-66
2021/05/05 10:45:44;;;;;;;2.27;1.35;;;;;;;24.15;26.19;96882.63;1716611;82;21169;-67
2021/05/05 10:48:17;;;;;;;1.52;1.07;;;;;;;23.62;26.61;96880.30;1716671;83;21174;-67
2021/05/05 10:50:58;;;;;;;2.87;1.15;;;;;;;22.75;27.62;96876.15;1716812;83;21165;-66
2021/05/05 10:53:47;;;;;;;1.52;0.98;;;;;;;22.44;29.18;96868.30;1716739;83;21212;-65
2021/05/05 10:56:27;;;;;;;1.60;1.20;;;;;;;22.29;30.08;96862.81;1716674;82;21165;-65
2021/05/05 10:59:01;;;;;;;3.87;1.70;;;;;;;22.25;30.60;96869.88;1716937;83;21570;-64
2021/05/05 11:01:45;;;;;;;3.92;1.00;;;;;;;22.57;30.28;96861.32;1713848;83;21165;-65
2021/05/05 11:04:15;;;;;;;1.87;1.22;;;;;;;22.27;30.11;96859.08;1716721;83;21629;-66
2021/05/05 11:07:04;;;;;;;1.32;1.10;;;;;;;22.17;30.68;96865.55;1716854;83;21146;-66
2021/05/05 11:09:40;;;;;;;2.30;1.17;;;;;;;22.15;30.71;96865.78;1650098;87;21150;-66
2021/05/05 11:12:22;;;;;;;2.95;0.90;;;;;;;21.76;31.21;96856.15;1666139;85;21207;-66
2021/05/05 11:14:50;;;;;;;6.70;1.25;;;;;;;21.48;31.96;96854.88;1662557;85;21163;-66
2021/05/05 11:17:30;;;;;;;2.00;1.10;;;;;;;21.78;31.67;96848.28;1666015;85;21206;-65
2021/05/05 11:19:58;;;;;;;5.25;1.22;;;;;;;21.89;31.77;96842.62;1666139;85;21204;-66
2021/05/05 11:22:33;;;;;;;1.77;1.10;;;;;;;21.46;32.25;96851.17;1666041;85;21182;-66
2021/05/05 11:25:21;;;;;;;1.77;1.20;;;;;;;21.26;32.48;96833.13;1666194;85;21868;-65
2021/05/05 11:27:52;;;;;;;1.45;1.00;;;;;;;21.42;32.36;96840.80;1666207;85;21648;-65
2021/05/05 11:30:33;;;;;;;1.57;1.22;;;;;;;21.12;32.69;96842.39;1666018;85;21178;-66
2021/05/05 11:33:01;;;;;;;4.87;1.50;;;;;;;21.36;32.61;96819.83;1666153;85;21623;-67
2021/05/05 11:35:31;;;;;;;1.45;1.20;;;;;;;21.33;32.92;96822.41;1666186;85;21187;-66
2021/05/05 11:38:18;;;;;;;2.37;0.80;;;;;;;21.08;33.32;96814.02;1666010;85;21144;-65
2021/05/05 11:40:57;;;;;;;1.22;0.98;;;;;;;21.23;32.87;96819.61;1664548;85;21206;-67
2021/05/05 11:43:28;;;;;;;1.65;1.15;;;;;;;20.92;33.63;96822.17;1665646;85;21612;-66
2021/05/05 11:46:02;;;;;;;2.33;1.50;;;;;;;20.77;34.03;96817.42;1666147;85;21599;-66
2021/05/05 11:48:38;;;;;;;1.12;0.90;;;;;;;20.75;33.80;96817.34;1666210;85;21190;-66
2021/05/05 11:51:23;;;;;;;1.35;1.00;;;;;;;20.87;33.55;96815.98;1666050;85;21178;-65
2021/05/05 11:53:52;;;;;;;2.50;1.10;;;;;;;20.64;33.78;96813.72;1665969;86;21171;-65
2021/05/05 11:56:26;;;;;;;2.85;1.15;;;;;;;20.61;34.18;96805.47;1665971;85;21186;-65
2021/05/05 11:59:01;;;;;;;2.10;1.20;;;;;;;20.66;33.80;96808.22;1665982;85;21679;-65
2021/05/05 12:01:37;;;;;;;2.55;1.15;;;;;;;20.68;34.02;96800.34;1666175;85;21190;-66
2021/05/05 12:04:20;;;;;;;1.40;0.80;;;;;;;20.91;32.66;96799.97;1666071;85;21649;-65
2021/05/05 12:06:56;;;;;;;2.27;1.25;;;;;;;21.13;31.55;96800.41;1666168;85;21182;-65
2021/05/05 12:09:32;;;;;;;3.05;1.12;;;;;;;21.17;31.63;96804.70;1664215;85;21560;-68
2021/05/05 12:12:43;;;;;;;2.35;1.30;;;;;;;21.54;32.34;96785.26;1664075;85;21170;-66
2021/05/05 12:15:12;;;;;;;5.35;1.22;;;;;;;21.65;32.33;96773.80;1629556;88;21396;-66
2021/05/05 12:17:53;;;;;;;1.10;0.82;;;;;;;22.25;30.82;96768.62;1629341;87;21184;-65